Time;durP1;ratioP1;P1;durP2;ratioP2;P2;SDS_P1;SDS_P2;PMS_P1;PMS_P2;Temp;Humidity;BMP_temperature;BMP_pressure;BME280_temperature;BME280_humidity;BME280_pressure;Samples;Min_cycle;Max_cycle;Signal;HPM_P1;HPM_P2
2023/08/09 00:02:20;;;;;;;0.70;0.38;;;;;;;;;;5067997;28;20052;-72
2023/08/09 00:04:48;;;;;;;2.17;0.45;;;;;;;;;;5067324;28;20058;-71
2023/08/09 00:07:15;;;;;;;1.23;0.40;;;;;;;;;;5066926;28;20055;-71
2023/08/09 00:09:43;;;;;;;1.38;0.45;;;;;;;;;;5065667;28;20060;-71
2023/08/09 00:12:10;;;;;;;0.32;0.28;;;;;;;;;;5065630;28;20040;-71
2023/08/09 00:14:37;;;;;;;0.90;0.40;;;;;;;;;;5061022;28;20624;-71
2023/08/09 00:17:04;;;;;;;3.15;0.55;;;;;;;;;;5068137;28;20052;-71
2023/08/09 00:19:32;;;;;;;3.47;0.40;;;;;;;;;;5066603;28;20438;-71
2023/08/09 00:22:00;;;;;;;0.75;0.30;;;;;;;;;;5064500;28;20063;-71
2023/08/09 00:24:28;;;;;;;1.27;0.32;;;;;;;;;;5065896;28;20431;-71
2023/08/09 00:26:55;;;;;;;0.47;0.22;;;;;;;;;;5062119;28;20553;-71
2023/08/09 00:29:23;;;;;;;0.73;0.30;;;;;;;;;;5061359;28;20047;-71
2023/08/09 00:31:50;;;;;;;1.38;0.38;;;;;;;;;;5063339;28;20072;-71
2023/08/09 00:34:17;;;;;;;3.03;0.60;;;;;;;;;;5061549;28;20059;-71
2023/08/09 00:36:45;;;;;;;3.63;0.40;;;;;;;;;;5056456;28;20428;-71
2023/08/09 00:39:13;;;;;;;0.40;0.28;;;;;;;;;;5061395;28;20053;-71
2023/08/09 00:41:41;;;;;;;1.13;0.40;;;;;;;;;;5059511;28;20131;-71
2023/08/09 00:44:08;;;;;;;0.77;0.30;;;;;;;;;;5054014;28;20385;-71
2023/08/09 00:46:37;;;;;;;1.70;0.40;;;;;;;;;;5058316;28;20048;-71
2023/08/09 00:49:05;;;;;;;0.68;0.35;;;;;;;;;;5058908;28;20080;-71
2023/08/09 00:51:32;;;;;;;2.83;0.50;;;;;;;;;;5067214;28;20049;-71
2023/08/09 00:53:59;;;;;;;1.58;0.50;;;;;;;;;;5065281;28;20559;-71
2023/08/09 00:56:28;;;;;;;1.65;0.30;;;;;;;;;;5060854;28;20048;-71
2023/08/09 00:58:55;;;;;;;0.77;0.30;;;;;;;;;;5060925;28;20549;-72
2023/08/09 01:01:23;;;;;;;1.13;0.40;;;;;;;;;;5063556;28;20063;-71
2023/08/09 01:03:50;;;;;;;0.65;0.40;;;;;;;;;;5061584;28;20049;-71
2023/08/09 01:06:22;;;;;;;1.55;0.50;;;;;;;;;;5065949;28;20072;-71
2023/08/09 01:08:51;;;;;;;0.98;0.50;;;;;;;;;;5068010;28;20519;-71
2023/08/09 01:11:21;;;;;;;0.85;0.40;;;;;;;;;;5065698;28;20052;-71
2023/08/09 01:13:52;;;;;;;1.30;0.40;;;;;;;;;;5063379;28;20105;-71
2023/08/09 01:16:21;;;;;;;1.15;0.47;;;;;;;;;;5060161;28;20052;-72
2023/08/09 01:18:49;;;;;;;1.55;0.38;;;;;;;;;;5065104;28;20404;-71
2023/08/09 01:21:19;;;;;;;2.25;0.35;;;;;;;;;;5065610;28;20426;-71
2023/08/09 01:23:47;;;;;;;1.35;0.35;;;;;;;;;;5064572;28;20055;-71
2023/08/09 01:26:15;;;;;;;2.35;0.50;;;;;;;;;;5063268;28;20056;-71
2023/08/09 01:28:42;;;;;;;2.15;0.40;;;;;;;;;;5058919;28;20060;-71
2023/08/09 01:31:10;;;;;;;0.93;0.52;;;;;;;;;;5062217;28;20048;-71
2023/08/09 01:33:38;;;;;;;1.73;0.32;;;;;;;;;;5062787;28;20057;-71
2023/08/09 01:36:08;;;;;;;4.72;0.45;;;;;;;;;;5063012;28;20056;-71
2023/08/09 01:38:37;;;;;;;3.60;0.30;;;;;;;;;;5060349;28;20147;-71
2023/08/09 01:41:07;;;;;;;2.10;0.40;;;;;;;;;;5068247;28;20087;-71
2023/08/09 01:43:35;;;;;;;3.13;0.35;;;;;;;;;;5065592;28;20121;-71
2023/08/09 01:46:03;;;;;;;1.65;0.40;;;;;;;;;;5065543;28;20060;-71
2023/08/09 01:48:30;;;;;;;0.90;0.55;;;;;;;;;;5061976;28;20414;-71
2023/08/09 01:50:59;;;;;;;2.72;0.50;;;;;;;;;;5065047;28;20070;-71
2023/08/09 01:53:26;;;;;;;1.13;0.40;;;;;;;;;;5063157;28;20049;-72
2023/08/09 01:55:53;;;;;;;2.45;0.38;;;;;;;;;;5061984;28;20061;-71
2023/08/09 01:58:22;;;;;;;2.17;0.47;;;;;;;;;;5064793;28;20044;-72
2023/08/09 02:00:49;;;;;;;3.83;0.40;;;;;;;;;;5061567;28;20063;-71
2023/08/09 02:03:16;;;;;;;0.95;0.43;;;;;;;;;;5056841;28;20059;-71
2023/08/09 02:05:44;;;;;;;2.40;0.47;;;;;;;;;;5067667;28;20395;-71
2023/08/09 02:08:11;;;;;;;0.95;0.40;;;;;;;;;;5065039;28;20480;-71
2023/08/09 02:10:38;;;;;;;1.90;0.38;;;;;;;;;;5057766;28;20056;-71
2023/08/09 02:13:05;;;;;;;1.20;0.40;;;;;;;;;;5066451;28;20045;-71
2023/08/09 02:15:34;;;;;;;0.73;0.40;;;;;;;;;;5068303;28;20056;-71
2023/08/09 02:18:01;;;;;;;3.55;0.50;;;;;;;;;;5064327;28;20480;-71
2023/08/09 02:20:29;;;;;;;3.70;0.50;;;;;;;;;;5066609;28;20391;-71
2023/08/09 02:22:58;;;;;;;3.72;0.38;;;;;;;;;;5068258;28;20114;-71
2023/08/09 02:25:25;;;;;;;2.00;0.82;;;;;;;;;;5068040;28;20044;-71
2023/08/09 02:27:52;;;;;;;1.98;0.60;;;;;;;;;;5069329;28;20139;-71
2023/08/09 02:30:20;;;;;;;1.90;0.40;;;;;;;;;;5067572;28;20049;-71
2023/08/09 02:32:50;;;;;;;0.90;0.30;;;;;;;;;;5067786;28;20099;-71
2023/08/09 02:35:17;;;;;;;2.90;0.40;;;;;;;;;;5065492;28;20048;-71
2023/08/09 02:37:44;;;;;;;1.52;0.40;;;;;;;;;;5063911;28;20071;-71
2023/08/09 02:40:12;;;;;;;3.67;0.35;;;;;;;;;;5064223;28;20055;-71
2023/08/09 02:42:40;;;;;;;0.93;0.47;;;;;;;;;;5066303;28;20068;-71
2023/08/09 02:45:07;;;;;;;2.47;0.35;;;;;;;;;;5063298;28;20057;-71
2023/08/09 02:47:36;;;;;;;2.33;0.30;;;;;;;;;;5068130;28;20052;-71
2023/08/09 02:50:06;;;;;;;2.35;0.60;;;;;;;;;;5067264;28;20080;-71
2023/08/09 02:52:33;;;;;;;2.30;0.50;;;;;;;;;;5065823;28;20059;-71
2023/08/09 02:55:02;;;;;;;5.07;0.50;;;;;;;;;;5071452;28;20044;-71
2023/08/09 02:57:29;;;;;;;1.98;0.43;;;;;;;;;;5064690;28;20407;-71
2023/08/09 02:59:57;;;;;;;2.47;0.60;;;;;;;;;;5064501;28;20052;-71
2023/08/09 03:02:25;;;;;;;2.53;0.50;;;;;;;;;;5068170;28;20415;-71
2023/08/09 03:04:53;;;;;;;0.63;0.50;;;;;;;;;;5061057;28;20444;-71
2023/08/09 03:07:21;;;;;;;1.70;0.52;;;;;;;;;;5060252;28;20048;-71
2023/08/09 03:09:48;;;;;;;1.50;0.50;;;;;;;;;;5061901;28;20044;-71
2023/08/09 03:12:16;;;;;;;1.13;0.40;;;;;;;;;;5067405;28;20045;-71
2023/08/09 03:14:43;;;;;;;1.05;0.50;;;;;;;;;;5061970;28;20053;-71
2023/08/09 03:17:11;;;;;;;1.95;0.50;;;;;;;;;;5068871;28;20074;-71
2023/08/09 03:19:38;;;;;;;4.18;0.47;;;;;;;;;;5060479;28;20056;-71
2023/08/09 03:22:05;;;;;;;1.50;0.50;;;;;;;;;;5068655;28;20052;-71
2023/08/09 03:24:34;;;;;;;0.88;0.40;;;;;;;;;;5065059;28;20044;-71
2023/08/09 03:27:02;;;;;;;1.60;0.57;;;;;;;;;;5069055;28;20049;-71
2023/08/09 03:29:30;;;;;;;2.40;0.50;;;;;;;;;;5060761;28;20474;-71
2023/08/09 03:31:57;;;;;;;2.45;0.43;;;;;;;;;;5067019;28;20040;-71
2023/08/09 03:34:24;;;;;;;1.02;0.40;;;;;;;;;;5063049;28;20099;-71
2023/08/09 03:36:51;;;;;;;4.00;0.68;;;;;;;;;;5062757;28;20045;-71
2023/08/09 03:39:18;;;;;;;1.30;0.40;;;;;;;;;;5064313;28;20057;-71
2023/08/09 03:41:46;;;;;;;1.10;0.40;;;;;;;;;;5066028;28;20056;-71
2023/08/09 03:44:14;;;;;;;1.33;0.55;;;;;;;;;;5065010;28;20044;-71
2023/08/09 03:46:42;;;;;;;0.57;0.40;;;;;;;;;;5055437;28;20049;-71
2023/08/09 03:49:09;;;;;;;0.60;0.40;;;;;;;;;;5060181;28;20052;-71
2023/08/09 03:51:36;;;;;;;2.05;0.30;;;;;;;;;;5061199;28;20048;-71
2023/08/09 03:54:03;;;;;;;0.80;0.50;;;;;;;;;;5059799;28;20051;-71
2023/08/09 03:56:31;;;;;;;2.60;0.52;;;;;;;;;;5066675;28;20392;-71
2023/08/09 03:58:58;;;;;;;2.63;0.60;;;;;;;;;;5066743;28;20063;-71
2023/08/09 04:01:26;;;;;;;2.55;0.55;;;;;;;;;;5059261;28;20048;-71
2023/08/09 04:03:54;;;;;;;3.47;0.68;;;;;;;;;;5059530;28;20048;-71
2023/08/09 04:06:21;;;;;;;1.95;0.52;;;;;;;;;;5066233;28;20044;-71
2023/08/09 04:08:48;;;;;;;1.83;0.50;;;;;;;;;;5058964;28;20098;-71
2023/08/09 04:11:15;;;;;;;2.47;0.40;;;;;;;;;;5063833;28;20044;-71
2023/08/09 04:13:43;;;;;;;0.73;0.40;;;;;;;;;;5063081;28;20048;-71
2023/08/09 04:16:10;;;;;;;2.35;0.45;;;;;;;;;;5065935;28;20080;-71
2023/08/09 04:18:39;;;;;;;0.95;0.38;;;;;;;;;;5063575;28;20057;-71
2023/08/09 04:21:07;;;;;;;3.40;0.65;;;;;;;;;;5060236;28;20048;-71
2023/08/09 04:23:34;;;;;;;2.10;0.57;;;;;;;;;;5063488;28;20044;-71
2023/08/09 04:26:03;;;;;;;0.63;0.40;;;;;;;;;;5063959;28;20158;-71
2023/08/09 04:28:30;;;;;;;3.03;0.70;;;;;;;;;;5073247;28;20071;-71
2023/08/09 04:30:57;;;;;;;2.42;0.55;;;;;;;;;;5062120;28;20052;-71
2023/08/09 04:33:25;;;;;;;1.73;0.52;;;;;;;;;;5067533;28;20063;-71
2023/08/09 04:35:54;;;;;;;7.00;0.68;;;;;;;;;;5063293;28;20056;-71
2023/08/09 04:38:21;;;;;;;4.05;0.68;;;;;;;;;;5066888;28;20075;-71
2023/08/09 04:40:48;;;;;;;1.40;0.40;;;;;;;;;;5066594;28;20060;-71
2023/08/09 04:43:17;;;;;;;3.50;0.75;;;;;;;;;;5066716;28;20052;-71
2023/08/09 04:45:44;;;;;;;3.95;0.40;;;;;;;;;;5063125;28;20373;-71
2023/08/09 04:48:16;;;;;;;2.30;0.38;;;;;;;;;;5066777;28;20053;-70
2023/08/09 04:50:44;;;;;;;2.45;0.50;;;;;;;;;;5062780;28;20442;-71
2023/08/09 04:53:12;;;;;;;1.92;0.57;;;;;;;;;;5065997;28;20052;-71
2023/08/09 04:55:40;;;;;;;1.50;0.43;;;;;;;;;;5063105;28;20052;-70
2023/08/09 04:58:07;;;;;;;4.25;0.50;;;;;;;;;;5066591;28;20044;-71
2023/08/09 05:00:34;;;;;;;1.25;0.60;;;;;;;;;;5067799;28;20048;-71
2023/08/09 05:03:01;;;;;;;1.38;0.50;;;;;;;;;;5061918;28;20048;-71
2023/08/09 05:05:29;;;;;;;2.83;0.55;;;;;;;;;;5066545;28;20040;-71
2023/08/09 05:07:57;;;;;;;3.92;0.60;;;;;;;;;;5066546;28;20044;-70
2023/08/09 05:10:25;;;;;;;2.20;0.50;;;;;;;;;;5066659;28;20052;-71
2023/08/09 05:12:53;;;;;;;1.73;0.60;;;;;;;;;;5064650;28;20139;-71
2023/08/09 05:15:20;;;;;;;3.40;0.70;;;;;;;;;;5065806;28;20063;-71
2023/08/09 05:17:47;;;;;;;1.35;0.43;;;;;;;;;;5063015;28;20048;-70
2023/08/09 05:20:15;;;;;;;1.17;0.40;;;;;;;;;;5064537;28;20508;-71
2023/08/09 05:22:43;;;;;;;1.17;0.65;;;;;;;;;;5055888;28;20525;-71
2023/08/09 05:25:11;;;;;;;1.55;0.47;;;;;;;;;;5063964;28;20152;-71
2023/08/09 05:27:39;;;;;;;3.47;0.57;;;;;;;;;;5061832;28;20055;-71
2023/08/09 05:30:07;;;;;;;1.70;0.60;;;;;;;;;;5064321;28;20078;-71
2023/08/09 05:32:35;;;;;;;3.83;0.50;;;;;;;;;;5068582;28;20076;-71
2023/08/09 05:35:02;;;;;;;1.45;0.50;;;;;;;;;;5067973;28;20159;-71
2023/08/09 05:37:30;;;;;;;1.25;0.60;;;;;;;;;;5065771;28;20048;-71
2023/08/09 05:39:57;;;;;;;2.33;0.60;;;;;;;;;;5059448;28;20480;-71
2023/08/09 05:42:24;;;;;;;2.47;0.60;;;;;;;;;;5062392;28;20461;-71
2023/08/09 05:44:53;;;;;;;1.25;0.60;;;;;;;;;;5070193;28;20056;-71
2023/08/09 05:47:20;;;;;;;1.30;0.52;;;;;;;;;;5070047;28;20041;-71
2023/08/09 05:49:47;;;;;;;3.00;0.57;;;;;;;;;;5068855;28;20057;-71
2023/08/09 05:52:15;;;;;;;1.42;0.70;;;;;;;;;;5069536;28;20063;-71
2023/08/09 05:54:42;;;;;;;1.48;0.50;;;;;;;;;;5063679;28;20052;-70
2023/08/09 05:57:09;;;;;;;7.78;0.77;;;;;;;;;;5068285;28;20064;-71
2023/08/09 05:59:37;;;;;;;2.65;0.75;;;;;;;;;;5073148;28;20131;-70
2023/08/09 06:02:06;;;;;;;2.42;0.65;;;;;;;;;;5067470;28;20051;-71
2023/08/09 06:04:33;;;;;;;1.40;0.65;;;;;;;;;;5063867;28;20098;-70
2023/08/09 06:07:01;;;;;;;4.10;0.80;;;;;;;;;;5062997;28;20052;-71
2023/08/09 06:09:29;;;;;;;4.28;0.70;;;;;;;;;;5069780;28;20059;-71
2023/08/09 06:11:56;;;;;;;3.75;0.80;;;;;;;;;;5069140;28;20048;-70
2023/08/09 06:14:23;;;;;;;8.90;0.90;;;;;;;;;;5060655;28;20071;-71
2023/08/09 06:16:51;;;;;;;1.20;0.68;;;;;;;;;;5069387;28;20057;-71
2023/08/09 06:19:19;;;;;;;2.05;0.95;;;;;;;;;;5070292;28;20053;-71
2023/08/09 06:21:47;;;;;;;3.65;0.80;;;;;;;;;;5060516;28;20048;-71
2023/08/09 06:24:14;;;;;;;2.17;0.52;;;;;;;;;;5062120;28;20047;-71
2023/08/09 06:26:41;;;;;;;0.70;0.52;;;;;;;;;;5067443;28;20048;-71
2023/08/09 06:29:09;;;;;;;4.15;0.70;;;;;;;;;;5063866;28;20047;-71
2023/08/09 06:31:36;;;;;;;1.50;0.60;;;;;;;;;;5065924;28;20106;-71
2023/08/09 06:34:04;;;;;;;4.10;1.00;;;;;;;;;;5067793;28;20051;-71
2023/08/09 06:36:32;;;;;;;2.60;0.60;;;;;;;;;;5070138;28;20503;-71
2023/08/09 06:38:59;;;;;;;1.20;0.57;;;;;;;;;;5063457;28;20052;-71
2023/08/09 06:41:27;;;;;;;1.40;0.55;;;;;;;;;;5063486;28;20052;-71
2023/08/09 06:43:54;;;;;;;2.38;0.50;;;;;;;;;;5068388;28;20044;-71
2023/08/09 06:46:21;;;;;;;2.63;0.52;;;;;;;;;;5060103;28;20048;-71
2023/08/09 06:48:48;;;;;;;2.17;0.60;;;;;;;;;;5067006;28;20053;-71
2023/08/09 06:51:18;;;;;;;1.85;0.70;;;;;;;;;;5068400;28;20057;-71
2023/08/09 06:53:47;;;;;;;3.53;0.60;;;;;;;;;;5068440;28;20052;-70
2023/08/09 06:56:14;;;;;;;1.90;0.55;;;;;;;;;;5066518;28;20052;-71
2023/08/09 06:58:41;;;;;;;4.97;0.80;;;;;;;;;;5066717;28;20057;-71
2023/08/09 07:01:09;;;;;;;1.48;0.60;;;;;;;;;;5065376;28;20131;-71
2023/08/09 07:03:36;;;;;;;1.67;0.40;;;;;;;;;;5067561;28;20055;-71
2023/08/09 07:06:04;;;;;;;5.45;0.60;;;;;;;;;;5066081;28;20084;-71
2023/08/09 07:08:31;;;;;;;1.90;0.50;;;;;;;;;;5062012;28;20142;-71
2023/08/09 07:11:00;;;;;;;1.42;0.55;;;;;;;;;;5062957;28;20163;-71
2023/08/09 07:13:27;;;;;;;3.20;0.50;;;;;;;;;;5059958;28;20503;-72
2023/08/09 07:15:54;;;;;;;2.83;0.65;;;;;;;;;;5069042;28;20060;-71
2023/08/09 07:18:22;;;;;;;2.85;0.95;;;;;;;;;;5067024;28;20143;-72
2023/08/09 07:20:49;;;;;;;1.95;0.57;;;;;;;;;;5068089;28;20041;-71
2023/08/09 07:23:16;;;;;;;2.88;0.57;;;;;;;;;;5068841;28;20053;-71
2023/08/09 07:25:43;;;;;;;1.88;0.60;;;;;;;;;;5068410;28;20143;-70
2023/08/09 07:28:12;;;;;;;2.10;0.88;;;;;;;;;;5064057;28;20041;-71
2023/08/09 07:30:40;;;;;;;1.70;0.52;;;;;;;;;;5069041;28;20127;-71
2023/08/09 07:33:07;;;;;;;2.72;0.52;;;;;;;;;;5064490;28;20504;-71
2023/08/09 07:35:35;;;;;;;4.60;0.55;;;;;;;;;;5067197;28;20044;-71
2023/08/09 07:38:02;;;;;;;1.23;0.50;;;;;;;;;;5067652;28;20048;-71
2023/08/09 07:40:30;;;;;;;3.92;0.50;;;;;;;;;;5068987;28;20113;-71
2023/08/09 07:42:59;;;;;;;2.88;0.68;;;;;;;;;;5069583;28;20055;-71
2023/08/09 07:45:28;;;;;;;3.70;0.73;;;;;;;;;;5068012;28;20060;-71
2023/08/09 07:47:55;;;;;;;2.58;0.60;;;;;;;;;;5068195;28;20128;-71
2023/08/09 07:50:22;;;;;;;3.45;0.50;;;;;;;;;;5068503;28;20423;-71
2023/08/09 07:52:50;;;;;;;1.98;0.60;;;;;;;;;;5064714;28;20055;-69
2023/08/09 07:55:17;;;;;;;2.83;0.60;;;;;;;;;;5065490;28;20127;-70
2023/08/09 07:57:45;;;;;;;0.68;0.50;;;;;;;;;;5066849;28;20053;-70
2023/08/09 08:00:12;;;;;;;3.88;0.60;;;;;;;;;;5053714;28;20052;-71
2023/08/09 08:02:43;;;;;;;1.73;0.57;;;;;;;;;;5054063;28;20055;-70
2023/08/09 08:05:11;;;;;;;1.85;0.52;;;;;;;;;;5060124;28;20098;-71
2023/08/09 08:07:39;;;;;;;1.33;0.40;;;;;;;;;;5060367;28;21253;-71
2023/08/09 08:10:08;;;;;;;0.60;0.52;;;;;;;;;;5062844;28;20198;-71
2023/08/09 08:12:35;;;;;;;1.95;0.57;;;;;;;;;;5060583;28;20106;-70
2023/08/09 08:15:03;;;;;;;1.63;0.60;;;;;;;;;;5063296;28;20059;-71
2023/08/09 08:17:31;;;;;;;5.40;0.80;;;;;;;;;;5064347;28;20055;-71
2023/08/09 08:20:00;;;;;;;6.95;0.70;;;;;;;;;;5061883;28;20468;-72
2023/08/09 08:22:28;;;;;;;2.75;0.73;;;;;;;;;;5066760;28;20067;-71
2023/08/09 08:24:55;;;;;;;0.93;0.40;;;;;;;;;;5064460;28;20226;-69
2023/08/09 08:27:23;;;;;;;2.42;0.50;;;;;;;;;;5060273;28;20049;-69
2023/08/09 08:29:50;;;;;;;4.05;0.70;;;;;;;;;;5063810;28;20056;-71
2023/08/09 08:32:17;;;;;;;2.83;0.55;;;;;;;;;;5063888;28;20051;-70
2023/08/09 08:34:44;;;;;;;2.90;0.60;;;;;;;;;;5054680;28;20064;-71
2023/08/09 08:37:13;;;;;;;1.23;0.60;;;;;;;;;;5061230;28;20041;-71
2023/08/09 08:39:44;;;;;;;1.80;0.70;;;;;;;;;;5061340;28;20550;-71
2023/08/09 08:42:12;;;;;;;2.25;0.68;;;;;;;;;;5058354;28;20079;-70
2023/08/09 08:44:39;;;;;;;0.70;0.50;;;;;;;;;;5054250;28;20064;-71
2023/08/09 08:47:07;;;;;;;2.42;0.55;;;;;;;;;;5060026;28;20052;-70
2023/08/09 08:49:36;;;;;;;1.92;0.60;;;;;;;;;;5057810;28;20131;-70
2023/08/09 08:52:07;;;;;;;3.20;0.63;;;;;;;;;;5063838;28;20392;-70
2023/08/09 08:54:36;;;;;;;0.82;0.50;;;;;;;;;;5060565;28;20428;-70
2023/08/09 08:57:03;;;;;;;1.20;0.60;;;;;;;;;;5064964;28;20048;-69
2023/08/09 08:59:30;;;;;;;1.65;0.50;;;;;;;;;;5061069;28;20059;-70
2023/08/09 09:01:59;;;;;;;2.28;0.60;;;;;;;;;;5059792;28;20056;-70
2023/08/09 09:04:26;;;;;;;0.93;0.68;;;;;;;;;;5062877;28;20066;-71
2023/08/09 09:06:53;;;;;;;2.20;0.52;;;;;;;;;;5064546;28;20044;-70
2023/08/09 09:09:21;;;;;;;1.77;0.60;;;;;;;;;;5069867;28;20044;-71
2023/08/09 09:11:53;;;;;;;1.67;0.60;;;;;;;;;;5068467;28;20053;-70
2023/08/09 09:14:21;;;;;;;2.58;0.82;;;;;;;;;;5070454;28;20048;-70
2023/08/09 09:16:50;;;;;;;4.53;0.60;;;;;;;;;;5066427;28;20041;-70
2023/08/09 09:19:17;;;;;;;1.73;0.55;;;;;;;;;;5063739;28;20063;-70
2023/08/09 09:21:45;;;;;;;0.57;0.50;;;;;;;;;;5068937;28;20448;-71
2023/08/09 09:24:13;;;;;;;0.80;0.47;;;;;;;;;;5065544;28;20044;-70
2023/08/09 09:26:40;;;;;;;1.77;0.70;;;;;;;;;;5065418;28;20049;-70
2023/08/09 09:29:09;;;;;;;2.70;0.40;;;;;;;;;;5065316;28;20044;-70
2023/08/09 09:31:38;;;;;;;5.88;0.63;;;;;;;;;;5067678;28;20041;-70
2023/08/09 09:34:09;;;;;;;0.95;0.50;;;;;;;;;;5069270;28;20048;-70
2023/08/09 09:36:39;;;;;;;1.90;0.70;;;;;;;;;;5069289;28;20483;-71
2023/08/09 09:39:10;;;;;;;1.27;0.47;;;;;;;;;;5071745;28;20044;-70
2023/08/09 09:41:37;;;;;;;1.13;0.50;;;;;;;;;;5061538;28;20049;-70
2023/08/09 09:44:05;;;;;;;0.57;0.40;;;;;;;;;;5065071;28;20500;-70
2023/08/09 09:46:33;;;;;;;0.90;0.50;;;;;;;;;;5065499;28;20061;-70
2023/08/09 09:49:05;;;;;;;1.90;0.50;;;;;;;;;;5069159;28;20384;-70
2023/08/09 09:51:32;;;;;;;0.93;0.50;;;;;;;;;;5060381;28;20057;-70
2023/08/09 09:53:59;;;;;;;2.03;0.60;;;;;;;;;;5062703;28;20049;-70
2023/08/09 09:56:27;;;;;;;2.33;0.70;;;;;;;;;;5067291;28;20079;-69
2023/08/09 09:58:54;;;;;;;1.00;0.60;;;;;;;;;;5057334;28;20045;-70
2023/08/09 10:01:23;;;;;;;1.15;0.60;;;;;;;;;;5066815;28;20075;-71
2023/08/09 10:03:54;;;;;;;2.42;0.70;;;;;;;;;;5071216;28;20084;-70
2023/08/09 10:06:23;;;;;;;1.38;0.55;;;;;;;;;;5062077;28;20904;-70
2023/08/09 10:08:53;;;;;;;1.38;0.60;;;;;;;;;;5067397;28;20404;-70
2023/08/09 10:11:21;;;;;;;0.70;0.43;;;;;;;;;;5067252;28;20077;-70
2023/08/09 10:13:49;;;;;;;3.17;0.77;;;;;;;;;;5066107;28;20055;-71
2023/08/09 10:16:17;;;;;;;2.97;0.63;;;;;;;;;;5068904;28;20045;-71
2023/08/09 10:18:45;;;;;;;2.00;0.60;;;;;;;;;;5068051;28;20113;-71
2023/08/09 10:21:16;;;;;;;1.00;0.50;;;;;;;;;;5067697;28;20048;-70
2023/08/09 10:23:55;;;;;;;0.73;0.50;;;;;;;;;;5066446;28;20052;-71
2023/08/09 10:26:28;;;;;;;2.22;0.75;;;;;;;;;;5069822;28;20132;-70
2023/08/09 10:29:02;;;;;;;1.35;0.50;;;;;;;;;;5069925;28;20047;-70
2023/08/09 10:31:50;;;;;;;1.77;0.50;;;;;;;;;;5068730;28;20056;-70
2023/08/09 10:34:17;;;;;;;2.70;0.70;;;;;;;;;;5066724;28;20049;-70
2023/08/09 10:36:50;;;;;;;3.17;0.70;;;;;;;;;;5065702;28;20059;-70
2023/08/09 10:39:19;;;;;;;1.67;0.70;;;;;;;;;;5065967;28;20468;-70
2023/08/09 10:41:56;;;;;;;1.40;0.60;;;;;;;;;;5065353;28;20048;-70
2023/08/09 10:44:37;;;;;;;1.15;0.40;;;;;;;;;;5070249;28;20103;-70
2023/08/09 10:47:06;;;;;;;1.33;0.43;;;;;;;;;;5059612;28;20456;-70
2023/08/09 10:49:52;;;;;;;0.80;0.50;;;;;;;;;;5066214;28;20056;-70
2023/08/09 10:52:21;;;;;;;1.50;0.60;;;;;;;;;;5060855;28;20098;-70
2023/08/09 10:54:50;;;;;;;1.17;0.52;;;;;;;;;;5059498;28;20052;-70
2023/08/09 10:57:17;;;;;;;1.45;0.60;;;;;;;;;;5056986;28;20079;-70
2023/08/09 10:59:46;;;;;;;3.00;0.68;;;;;;;;;;5068879;28;20130;-69
2023/08/09 11:02:17;;;;;;;0.70;0.57;;;;;;;;;;5056695;28;20106;-70
2023/08/09 11:04:45;;;;;;;1.58;0.60;;;;;;;;;;5063813;28;20460;-71
2023/08/09 11:07:21;;;;;;;3.13;0.80;;;;;;;;;;5059040;28;20127;-70
2023/08/09 11:09:48;;;;;;;1.45;0.80;;;;;;;;;;5065023;28;20049;-70
2023/08/09 11:12:17;;;;;;;1.75;0.70;;;;;;;;;;5059875;28;20041;-71
2023/08/09 11:14:44;;;;;;;3.50;0.75;;;;;;;;;;5061070;28;20415;-71
2023/08/09 11:17:13;;;;;;;4.05;0.90;;;;;;;;;;5065816;28;20475;-71
2023/08/09 11:19:41;;;;;;;5.00;1.00;;;;;;;;;;5064151;28;20049;-70
2023/08/09 11:22:08;;;;;;;3.75;0.90;;;;;;;;;;5062465;28;20049;-71
2023/08/09 11:24:37;;;;;;;4.53;1.10;;;;;;;;;;5065380;28;20051;-71
2023/08/09 11:27:04;;;;;;;4.07;1.00;;;;;;;;;;5069154;28;20052;-71
2023/08/09 11:29:35;;;;;;;1.95;0.80;;;;;;;;;;5066321;28;20059;-71
2023/08/09 11:32:03;;;;;;;6.57;0.77;;;;;;;;;;5065843;28;20127;-71
2023/08/09 11:34:31;;;;;;;4.90;0.85;;;;;;;;;;5068584;28;20052;-70
2023/08/09 11:36:58;;;;;;;2.67;0.60;;;;;;;;;;5064023;28;20584;-71
2023/08/09 11:39:26;;;;;;;1.52;0.73;;;;;;;;;;5057529;28;20045;-71
2023/08/09 11:41:57;;;;;;;3.22;1.13;;;;;;;;;;5059976;28;20045;-71
2023/08/09 11:44:27;;;;;;;3.30;0.80;;;;;;;;;;5062270;28;20048;-71
2023/08/09 11:46:54;;;;;;;7.15;1.10;;;;;;;;;;5062242;28;20093;-71
2023/08/09 11:49:26;;;;;;;4.25;0.90;;;;;;;;;;5063221;28;20222;-71
2023/08/09 11:51:53;;;;;;;2.90;0.95;;;;;;;;;;5063362;28;20496;-70
2023/08/09 11:54:21;;;;;;;2.95;1.08;;;;;;;;;;5062920;28;20044;-71
2023/08/09 11:56:49;;;;;;;5.45;1.10;;;;;;;;;;5062866;28;20044;-71
2023/08/09 11:59:19;;;;;;;6.15;1.20;;;;;;;;;;5062572;28;20044;-71
2023/08/09 12:01:46;;;;;;;4.93;1.13;;;;;;;;;;5061584;28;20049;-71
2023/08/09 12:04:17;;;;;;;3.42;0.90;;;;;;;;;;5062927;28;20476;-71
2023/08/09 12:06:45;;;;;;;4.13;1.13;;;;;;;;;;5067604;28;20098;-71
2023/08/09 12:09:30;;;;;;;2.47;0.90;;;;;;;;;;5063634;28;20044;-70
2023/08/09 12:11:58;;;;;;;3.25;1.00;;;;;;;;;;5067584;28;20498;-71
2023/08/09 12:14:26;;;;;;;3.88;1.00;;;;;;;;;;5066259;28;20514;-71
2023/08/09 12:16:53;;;;;;;5.05;1.30;;;;;;;;;;5064905;28;20045;-70
2023/08/09 12:19:22;;;;;;;4.07;1.08;;;;;;;;;;5066398;28;20052;-70
2023/08/09 12:21:49;;;;;;;3.47;1.20;;;;;;;;;;5065116;28;20052;-71
2023/08/09 12:24:17;;;;;;;3.15;1.13;;;;;;;;;;5066456;28;20048;-71
2023/08/09 12:26:44;;;;;;;4.47;1.17;;;;;;;;;;5059971;28;20055;-70
2023/08/09 12:29:12;;;;;;;6.20;1.23;;;;;;;;;;5063739;28;20072;-71
2023/08/09 12:31:40;;;;;;;6.15;1.33;;;;;;;;;;5061092;28;20048;-71
2023/08/09 12:34:10;;;;;;;1.90;0.98;;;;;;;;;;5058410;28;20072;-71
2023/08/09 12:36:38;;;;;;;5.35;1.13;;;;;;;;;;5063337;28;20044;-71
2023/08/09 12:39:06;;;;;;;4.60;1.38;;;;;;;;;;5066504;28;20044;-71
2023/08/09 12:41:34;;;;;;;2.40;1.05;;;;;;;;;;5062661;28;20052;-71
2023/08/09 12:44:01;;;;;;;5.28;1.17;;;;;;;;;;5061669;28;20045;-71
2023/08/09 12:46:28;;;;;;;3.50;1.35;;;;;;;;;;5062698;28;20051;-71
2023/08/09 12:48:57;;;;;;;4.68;1.08;;;;;;;;;;5055867;28;20048;-71
2023/08/09 12:51:24;;;;;;;3.75;1.27;;;;;;;;;;5061793;28;20053;-71
2023/08/09 12:53:51;;;;;;;3.10;1.10;;;;;;;;;;5061055;28;20049;-71
2023/08/09 12:56:19;;;;;;;3.20;1.02;;;;;;;;;;5059938;28;20473;-70
2023/08/09 12:58:46;;;;;;;8.63;1.30;;;;;;;;;;5060950;28;20388;-71
2023/08/09 13:01:13;;;;;;;2.90;1.00;;;;;;;;;;5061906;28;20055;-71
2023/08/09 13:03:41;;;;;;;2.95;1.08;;;;;;;;;;5057976;28;20454;-70
2023/08/09 13:06:09;;;;;;;4.07;1.20;;;;;;;;;;5064638;28;20113;-71
2023/08/09 13:08:37;;;;;;;3.03;1.30;;;;;;;;;;5058944;28;20048;-71
2023/08/09 13:11:04;;;;;;;6.20;1.38;;;;;;;;;;5059018;28;20066;-71
2023/08/09 13:13:31;;;;;;;2.58;1.08;;;;;;;;;;5058142;28;20059;-71
2023/08/09 13:15:58;;;;;;;5.05;1.27;;;;;;;;;;5070709;28;20044;-72
2023/08/09 13:18:26;;;;;;;3.00;0.90;;;;;;;;;;5067011;28;20047;-71
2023/08/09 13:20:53;;;;;;;3.78;1.17;;;;;;;;;;5058174;28;20053;-71
2023/08/09 13:23:21;;;;;;;2.72;0.90;;;;;;;;;;5064114;28;20056;-71
2023/08/09 13:25:49;;;;;;;3.97;1.02;;;;;;;;;;5059878;28;20052;-71
2023/08/09 13:28:16;;;;;;;5.85;1.20;;;;;;;;;;5065890;28;20055;-72
2023/08/09 13:30:43;;;;;;;5.35;1.25;;;;;;;;;;5058556;28;20071;-71
2023/08/09 13:33:12;;;;;;;5.82;1.33;;;;;;;;;;5057760;28;20052;-71
2023/08/09 13:35:39;;;;;;;3.08;1.23;;;;;;;;;;5060226;28;20067;-71
2023/08/09 13:38:08;;;;;;;5.82;1.38;;;;;;;;;;5072596;28;20047;-72
2023/08/09 13:40:36;;;;;;;3.53;1.13;;;;;;;;;;5052952;28;20056;-71
2023/08/09 13:43:04;;;;;;;3.53;1.10;;;;;;;;;;5063876;28;20044;-71
2023/08/09 13:45:31;;;;;;;4.22;1.00;;;;;;;;;;5057364;28;20114;-71
2023/08/09 13:47:59;;;;;;;3.80;1.30;;;;;;;;;;5066046;28;22007;-72
2023/08/09 13:50:26;;;;;;;8.55;1.42;;;;;;;;;;5062834;28;20052;-72
2023/08/09 13:52:53;;;;;;;4.25;1.02;;;;;;;;;;5066674;28;20040;-72
2023/08/09 13:55:20;;;;;;;4.60;1.20;;;;;;;;;;5067101;28;20053;-71
2023/08/09 13:57:49;;;;;;;6.03;1.10;;;;;;;;;;5070264;28;20049;-71
2023/08/09 14:00:16;;;;;;;3.83;0.90;;;;;;;;;;5066870;28;20072;-71
2023/08/09 14:02:43;;;;;;;3.58;1.10;;;;;;;;;;5065418;28;20678;-71
2023/08/09 14:05:11;;;;;;;2.78;1.00;;;;;;;;;;5066545;28;20216;-71
2023/08/09 14:07:38;;;;;;;7.38;1.40;;;;;;;;;;5067917;28;20052;-71
2023/08/09 14:10:06;;;;;;;2.08;0.90;;;;;;;;;;5064007;28;20045;-71
2023/08/09 14:12:34;;;;;;;3.90;1.10;;;;;;;;;;5064381;28;20049;-71
2023/08/09 14:15:04;;;;;;;2.70;0.90;;;;;;;;;;5064884;28;20857;-71
2023/08/09 14:17:31;;;;;;;2.15;0.80;;;;;;;;;;5068518;28;20083;-71
2023/08/09 14:19:58;;;;;;;5.20;1.00;;;;;;;;;;5065191;28;20049;-72
2023/08/09 14:22:26;;;;;;;4.53;1.35;;;;;;;;;;5067337;28;20139;-71
2023/08/09 14:24:53;;;;;;;4.95;1.17;;;;;;;;;;5068619;28;20048;-71
2023/08/09 14:27:20;;;;;;;4.40;1.20;;;;;;;;;;5069655;28;20056;-71
2023/08/09 14:29:48;;;;;;;4.13;1.00;;;;;;;;;;5070430;28;20050;-72
2023/08/09 14:32:18;;;;;;;4.75;1.10;;;;;;;;;;5062576;28;20095;-72
2023/08/09 14:34:45;;;;;;;3.70;1.00;;;;;;;;;;5068779;28;20094;-71
2023/08/09 14:37:13;;;;;;;2.60;1.00;;;;;;;;;;5068033;28;20040;-71
2023/08/09 14:39:40;;;;;;;4.70;1.35;;;;;;;;;;5070553;28;20049;-70
2023/08/09 14:42:07;;;;;;;2.88;1.20;;;;;;;;;;5061533;28;20052;-71
2023/08/09 14:44:35;;;;;;;2.33;1.10;;;;;;;;;;5063315;28;20481;-73
2023/08/09 14:47:02;;;;;;;5.47;1.10;;;;;;;;;;5070329;28;20040;-72
2023/08/09 14:49:31;;;;;;;3.10;1.10;;;;;;;;;;5065590;28;20045;-71